Time;durP1;ratioP1;P1;durP2;ratioP2;P2;SDS_P1;SDS_P2;PMS_P1;PMS_P2;Temp;Humidity;BMP_temperature;BMP_pressure;BME280_temperature;BME280_humidity;BME280_pressure;Samples;Min_cycle;Max_cycle;Signal;HPM_P1;HPM_P2
2023/04/28 00:50:48;;;;;;;63.80;34.20;;;;;;;0.85;81.76;99528.21;273678;1275;22941;-87
2023/04/28 01:11:42;;;;;;;55.00;30.20;;;;;;;0.64;83.85;99538.04;273359;1270;23529;-87
2023/04/28 01:18:53;;;;;;;58.40;30.70;;;;;;;0.65;83.37;99537.70;265766;1269;10141257;-87
2023/04/28 01:40:48;;;;;;;51.90;27.60;;;;;;;0.61;83.55;99536.84;271109;1280;22283;-86
2023/04/28 02:01:37;;;;;;;69.60;37.00;;;;;;;0.61;84.85;99534.97;270799;1269;22422;-86
2023/04/28 02:16:24;;;;;;;56.60;33.20;;;;;;;0.79;86.30;99531.63;273270;1269;22180;-86
2023/04/28 02:38:16;;;;;;;56.50;29.40;;;;;;;0.69;85.72;99546.41;273229;1270;22844;-86
2023/04/28 02:44:48;;;;;;;55.70;29.30;;;;;;;0.66;86.49;99546.30;273406;1270;22789;-86
2023/04/28 02:51:25;;;;;;;56.80;30.60;;;;;;;0.68;86.03;99545.52;273300;1270;22448;-86
2023/04/28 02:57:53;;;;;;;67.10;32.00;;;;;;;0.66;86.30;99538.88;273050;1270;22436;-86
2023/04/28 03:04:58;;;;;;;62.60;33.90;;;;;;;0.69;86.71;99534.29;272887;1269;22205;-86
2023/04/28 03:11:39;;;;;;;53.80;28.00;;;;;;;0.64;86.69;99536.08;273022;1270;22223;-86
2023/04/28 03:25:34;;;;;;;58.40;30.40;;;;;;;0.49;87.29;99534.38;273740;1260;23344;-86
2023/04/28 03:55:35;;;;;;;62.90;34.00;;;;;;;0.61;88.48;99545.86;273766;1270;22344;-86
2023/04/28 04:02:52;;;;;;;63.00;34.50;;;;;;;0.59;88.56;99545.30;273549;1269;23036;-85
2023/04/28 04:18:16;;;;;;;64.20;33.90;;;;;;;0.61;88.93;99537.94;272385;1270;23463;-85
2023/04/28 04:26:10;;;;;;;67.00;34.40;;;;;;;0.65;89.48;99534.08;273367;1269;22256;-85
2023/04/28 04:32:35;;;;;;;66.90;36.00;;;;;;;0.79;90.09;99530.98;273391;1269;23358;-86
2023/04/28 04:40:07;;;;;;;62.30;37.20;;;;;;;0.99;90.68;99534.63;272296;1275;22321;-86
2023/04/28 04:46:37;;;;;;;59.60;33.00;;;;;;;1.19;90.89;99533.26;271960;1276;22935;-85
2023/04/28 05:00:26;;;;;;;62.40;34.60;;;;;;;1.94;92.13;99528.80;271701;1270;22369;-85
2023/04/28 05:06:28;;;;;;;58.30;32.70;;;;;;;2.46;92.40;99528.73;271656;1267;22242;-86
2023/04/28 05:12:43;;;;;;;58.50;34.90;;;;;;;2.90;91.94;99529.80;271656;1269;23017;-86
2023/04/28 05:18:49;;;;;;;61.50;35.90;;;;;;;3.35;91.45;99530.41;273436;1269;22225;-85
2023/04/28 05:25:03;;;;;;;68.60;35.60;;;;;;;3.65;89.94;99524.16;273106;1270;22187;-86
2023/04/28 05:31:30;;;;;;;56.40;32.50;;;;;;;3.91;89.28;99520.70;272930;1269;22177;-87
2023/04/28 05:37:38;;;;;;;60.80;33.80;;;;;;;4.23;88.78;99522.61;273549;1256;22345;-87
2023/04/28 05:44:05;;;;;;;64.00;39.80;;;;;;;4.58;88.16;99526.02;272888;1269;22220;-87
2023/04/28 05:58:05;;;;;;;47.00;28.60;;;;;;;5.48;87.57;99522.27;271086;1269;22322;-88
2023/04/28 06:27:17;;;;;;;33.60;21.60;;;;;;;7.50;82.70;99525.96;272916;1269;22383;-88
2023/04/28 06:33:45;;;;;;;39.70;22.70;;;;;;;7.85;81.59;99517.39;273263;1270;22808;-88
2023/04/28 06:40:12;;;;;;;;;;;;;;;8.18;80.70;99519.92;272495;1269;22466;-88
2023/04/28 06:46:59;;;;;;;28.70;14.80;;;;;;;8.58;80.38;99518.04;272568;1269;22905;-89
2023/04/28 06:53:06;;;;;;;22.90;14.50;;;;;;;8.92;80.17;99514.58;273347;1269;22372;-89
2023/04/28 07:07:31;;;;;;;18.10;11.00;;;;;;;9.54;77.90;99500.79;272802;1269;22211;-88
2023/04/28 07:13:36;;;;;;;20.30;11.10;;;;;;;9.84;76.81;99499.13;272771;1269;22272;-88
2023/04/28 07:19:42;;;;;;;15.50;8.80;;;;;;;10.14;76.32;99490.73;273194;1259;22821;-87
2023/04/28 07:25:43;;;;;;;12.30;6.50;;;;;;;10.48;74.34;99482.20;273049;1270;22441;-89
2023/04/28 07:32:12;;;;;;;12.70;5.70;;;;;;;10.85;71.86;99479.84;272658;1260;22193;-88
2023/04/28 07:38:39;;;;;;;9.50;4.30;;;;;;;11.23;70.77;99472.73;273136;1270;23243;-88
2023/04/28 07:44:44;;;;;;;8.10;4.50;;;;;;;11.71;67.86;99465.08;273092;1269;22377;-89
2023/04/28 07:50:47;;;;;;;10.30;4.00;;;;;;;12.25;67.11;99462.49;273060;1269;22283;-89
2023/04/28 07:56:48;;;;;;;7.30;4.00;;;;;;;12.70;65.15;99452.93;271167;1263;22574;-87
2023/04/28 08:03:17;;;;;;;6.80;3.80;;;;;;;13.15;64.51;99454.86;271473;1269;22271;-88
2023/04/28 08:09:41;;;;;;;8.70;4.00;;;;;;;13.47;63.02;99457.23;270845;1269;22649;-87
2023/04/28 08:15:43;;;;;;;7.10;3.30;;;;;;;13.25;57.96;99455.02;270910;1269;22655;-88
2023/04/28 08:22:28;;;;;;;6.90;3.70;;;;;;;13.22;57.37;99444.64;270782;1269;22331;-87
2023/04/28 08:28:31;;;;;;;5.70;3.80;;;;;;;13.63;57.15;99443.35;272989;1269;24294;-86
2023/04/28 08:34:33;;;;;;;9.50;3.80;;;;;;;13.95;55.68;99442.19;272997;1269;22196;-87
2023/04/28 08:40:44;;;;;;;7.10;3.30;;;;;;;13.97;53.89;99435.67;272132;1269;23591;-88
2023/04/28 08:47:19;;;;;;;7.90;3.60;;;;;;;14.06;53.34;99432.17;270188;1269;23480;-88
2023/04/28 08:54:18;;;;;;;;;;;;;;;;;;;;;
2023/04/28 09:08:15;;;;;;;6.80;3.70;;;;;;;15.24;51.11;99413.80;272790;1269;22975;-88
2023/04/28 09:15:25;;;;;;;6.30;3.90;;;;;;;15.08;47.10;99415.94;272844;1269;22219;-87
2023/04/28 09:22:32;;;;;;;9.00;3.50;;;;;;;15.06;45.87;99406.63;273189;1269;22324;-87
2023/04/28 09:29:34;;;;;;;5.70;3.70;;;;;;;15.81;45.73;99395.15;271884;1273;22419;-88
2023/04/28 09:35:40;;;;;;;6.10;3.20;;;;;;;16.73;44.73;99381.72;271715;1273;22402;-88
2023/04/28 09:42:04;;;;;;;6.20;3.60;;;;;;;17.18;40.02;99380.44;272236;1273;23162;-88
2023/04/28 09:49:14;;;;;;;6.00;3.10;;;;;;;17.41;40.73;99378.55;272098;1273;22335;-88
2023/04/28 09:55:19;;;;;;;6.80;3.60;;;;;;;17.81;41.17;99371.71;272367;1274;22244;-89
2023/04/28 10:01:31;;;;;;;;;;;;;;;17.79;41.23;99366.27;271212;1270;22530;-87
2023/04/28 10:15:57;;;;;;;5.30;3.10;;;;;;;18.18;39.90;99350.89;273079;1269;22408;-87
2023/04/28 10:22:51;;;;;;;5.50;3.50;;;;;;;18.56;37.48;99342.60;272800;1269;22332;-86
2023/04/28 10:29:22;;;;;;;8.90;4.30;;;;;;;18.89;37.60;99334.94;273523;1269;22206;-86
2023/04/28 10:43:38;;;;;;;5.80;3.30;;;;;;;19.64;35.91;99313.96;273468;1269;22922;-87
2023/04/28 10:50:30;;;;;;;;;;;;;;;;;;;;;
2023/04/28 11:11:13;;;;;;;6.10;3.10;;;;;;;19.85;34.12;99274.96;273406;1269;22177;-88
2023/04/28 11:17:22;;;;;;;5.10;2.60;;;;;;;20.04;33.77;99265.65;273480;1269;22342;-86
2023/04/28 11:24:21;;;;;;;8.20;2.60;;;;;;;20.41;32.53;99261.95;273158;1269;22253;-87
2023/04/28 11:37:43;;;;;;;5.00;2.50;;;;;;;20.80;31.89;99247.19;271085;1269;22545;-88
2023/04/28 11:43:52;;;;;;;5.60;2.90;;;;;;;20.48;31.45;99243.80;272053;1269;22634;-89
2023/04/28 11:50:03;;;;;;;4.30;2.60;;;;;;;20.34;31.58;99232.42;272626;1269;23081;-87
2023/04/28 11:56:07;;;;;;;3.50;2.10;;;;;;;20.63;31.63;99220.23;273407;1269;22528;-87
2023/04/28 12:02:29;;;;;;;5.70;2.50;;;;;;;20.87;32.03;99209.10;272686;1272;23326;-87
2023/04/28 12:08:31;;;;;;;5.70;2.60;;;;;;;20.55;30.56;99198.95;272008;1270;22240;-88
2023/04/28 12:15:08;;;;;;;4.60;2.50;;;;;;;19.83;30.28;99192.45;273615;1270;22226;-87
2023/04/28 12:28:58;;;;;;;4.20;2.70;;;;;;;19.49;30.82;99175.65;270103;1280;22367;-86
2023/04/28 12:57:28;;;;;;;5.10;2.60;;;;;;;18.93;31.10;99136.73;271297;1269;22441;-87
2023/04/28 13:03:43;;;;;;;7.40;2.90;;;;;;;18.80;31.07;99133.09;273002;1270;22239;-88
2023/04/28 13:10:02;;;;;;;5.30;3.00;;;;;;;18.74;31.13;99125.61;273005;1269;22422;-88
2023/04/28 13:16:10;;;;;;;4.30;2.60;;;;;;;18.67;30.80;99114.75;264408;1269;10143406;-87
2023/04/28 13:23:03;;;;;;;5.60;2.90;;;;;;;18.89;31.30;99105.34;273480;1269;22296;-88
2023/04/28 13:29:16;;;;;;;6.30;2.80;;;;;;;18.88;31.16;99092.13;273140;1269;22167;-87
2023/04/28 13:35:49;;;;;;;8.20;4.00;;;;;;;18.75;31.55;99084.79;273485;1272;23386;-87
2023/04/28 13:42:42;;;;;;;6.80;3.10;;;;;;;18.89;31.58;99077.77;272197;1268;22622;-87
2023/04/28 13:48:57;;;;;;;7.40;3.10;;;;;;;18.87;31.65;99071.48;272924;1269;22207;-87
2023/04/28 13:55:26;;;;;;;7.40;3.10;;;;;;;18.66;30.92;99062.71;272779;1277;22243;-86
2023/04/28 14:08:55;;;;;;;4.10;2.40;;;;;;;18.75;30.99;99038.05;272341;1274;25362;-87
2023/04/28 14:14:56;;;;;;;5.30;3.10;;;;;;;18.75;31.31;99030.91;270473;1274;22209;-87
2023/04/28 14:21:24;;;;;;;6.30;2.60;;;;;;;18.73;31.28;99028.73;271259;1274;23045;-86
2023/04/28 14:27:50;;;;;;;5.70;3.40;;;;;;;18.62;31.64;99029.92;272241;1272;22370;-86
2023/04/28 14:33:53;;;;;;;9.60;4.00;;;;;;;18.56;31.89;99018.09;273582;1269;22354;-87
2023/04/28 14:40:41;;;;;;;7.80;3.60;;;;;;;18.24;31.88;99014.10;273109;1269;22236;-87
2023/04/28 14:47:08;;;;;;;8.50;4.40;;;;;;;17.96;32.34;99017.09;271966;1269;22366;-87
2023/04/28 14:53:57;;;;;;;8.00;3.70;;;;;;;17.69;32.35;99022.63;271517;1271;22571;-88
2023/04/28 15:00:32;;;;;;;8.00;4.70;;;;;;;17.27;32.39;99021.92;272842;1269;23087;-87
2023/04/28 15:07:12;;;;;;;6.50;3.40;;;;;;;17.03;32.66;99014.46;270991;1269;22556;-87
2023/04/28 15:13:15;;;;;;;7.20;4.30;;;;;;;16.96;32.90;99003.91;271936;1270;22230;-87
2023/04/28 15:27:36;;;;;;;7.20;3.00;;;;;;;16.88;33.30;98998.25;271812;1269;10001403;-87
2023/04/28 15:33:51;;;;;;;5.20;2.90;;;;;;;16.74;33.25;98997.42;272635;1269;22253;-87
2023/04/28 15:40:26;;;;;;;6.80;3.80;;;;;;;16.65;33.45;98993.60;273478;1275;22236;-88
2023/04/28 15:54:33;;;;;;;5.40;2.90;;;;;;;16.32;34.14;98998.80;272666;1273;23560;-88
2023/04/28 16:01:00;;;;;;;7.10;3.00;;;;;;;16.14;34.38;98998.29;273285;1274;22230;-88
2023/04/28 16:07:12;;;;;;;6.00;3.40;;;;;;;15.92;34.47;98991.61;272612;1272;23296;-88
2023/04/28 16:14:24;;;;;;;4.50;2.90;;;;;;;15.70;34.62;98983.69;273220;1269;22232;-88
2023/04/28 16:20:27;;;;;;;5.40;2.80;;;;;;;15.55;35.00;98977.20;272045;1269;22414;-88
2023/04/28 16:26:51;;;;;;;8.00;2.50;;;;;;;15.39;35.27;98973.55;273368;1276;22237;-88
2023/04/28 16:33:43;;;;;;;7.50;2.50;;;;;;;15.24;35.57;98969.10;273097;1272;23317;-87
2023/04/28 16:39:44;;;;;;;6.90;3.40;;;;;;;15.13;35.77;98966.58;273349;1270;22347;-86
2023/04/28 16:52:59;;;;;;;6.70;3.00;;;;;;;14.75;36.38;98962.91;273217;1275;23359;-88
2023/04/28 16:59:29;;;;;;;9.10;3.30;;;;;;;14.53;36.61;98961.46;273259;1273;22456;-88
2023/04/28 17:05:39;;;;;;;6.50;3.00;;;;;;;14.33;36.89;98960.05;273621;1269;22680;-89
2023/04/28 17:11:55;;;;;;;7.00;3.10;;;;;;;14.14;37.13;98964.28;273398;1269;22290;-88
2023/04/28 17:17:57;;;;;;;5.20;2.60;;;;;;;13.95;37.23;98970.70;272217;1273;23730;-88
2023/04/28 17:24:23;;;;;;;6.10;2.80;;;;;;;13.76;37.46;98970.12;272992;1273;22260;-87
2023/04/28 17:30:49;;;;;;;6.60;3.10;;;;;;;13.56;37.87;98967.32;265717;1270;10001287;-86
2023/04/28 17:44:01;;;;;;;8.20;3.40;;;;;;;13.15;38.28;98943.78;273418;1264;22226;-88
2023/04/28 17:57:32;;;;;;;7.40;3.00;;;;;;;12.79;39.02;98940.60;273039;1270;22221;-88
2023/04/28 18:04:25;;;;;;;5.80;3.20;;;;;;;12.64;39.33;98940.64;271968;1270;22523;-89
2023/04/28 18:11:41;;;;;;;7.00;3.30;;;;;;;12.48;39.71;98939.52;273204;1278;22205;-88
2023/04/28 18:18:15;;;;;;;7.30;4.00;;;;;;;12.30;40.11;98937.50;272209;1253;22595;-87
2023/04/28 18:24:32;;;;;;;7.60;4.10;;;;;;;12.14;40.58;98943.09;271492;1270;22440;-88
2023/04/28 18:31:03;;;;;;;11.60;4.90;;;;;;;12.00;40.96;98949.30;273200;1270;22212;-88
2023/04/28 18:37:16;;;;;;;8.60;3.90;;;;;;;11.89;41.35;98949.17;272915;1271;22516;-88
2023/04/28 18:43:18;;;;;;;10.60;5.00;;;;;;;11.81;41.66;98958.06;273060;1270;22213;-87
2023/04/28 18:50:07;;;;;;;13.10;4.80;;;;;;;11.77;42.03;98963.52;273447;1269;22237;-88
2023/04/28 19:05:13;;;;;;;11.00;6.00;;;;;;;11.65;42.83;98965.32;273350;1269;23196;-87
2023/04/28 19:18:50;;;;;;;13.60;6.00;;;;;;;11.48;43.20;98964.32;273355;1269;22332;-88
2023/04/28 19:25:16;;;;;;;10.10;5.50;;;;;;;11.38;43.42;98958.29;272403;1270;22917;-87
2023/04/28 19:31:47;;;;;;;11.30;5.30;;;;;;;11.32;44.83;98958.17;273094;1270;23620;-88
2023/04/28 20:00:28;;;;;;;12.60;7.20;;;;;;;10.41;48.03;98954.44;272092;1270;22440;-87
2023/04/28 20:06:55;;;;;;;9.70;6.00;;;;;;;10.20;48.28;98945.67;273619;1276;22254;-88
2023/04/28 20:13:36;;;;;;;13.90;6.40;;;;;;;9.93;48.14;98941.55;273502;1252;23665;-88
2023/04/28 20:19:41;;;;;;;12.30;5.80;;;;;;;9.53;48.64;98941.42;273378;1270;23344;-88
2023/04/28 20:26:15;;;;;;;15.90;6.20;;;;;;;9.36;50.58;98947.80;273275;1269;22434;-87
2023/04/28 20:33:09;;;;;;;17.40;7.20;;;;;;;9.27;51.14;98946.73;265663;1269;10001775;-87
2023/04/28 20:40:39;;;;;;;22.40;10.30;;;;;;;8.96;51.33;98941.39;272523;1273;23024;-87
2023/04/28 20:47:05;;;;;;;38.10;17.60;;;;;;;8.67;51.89;98941.13;273397;1269;22252;-87
2023/04/28 20:53:07;;;;;;;55.90;22.90;;;;;;;8.44;52.82;98939.61;272350;1269;22320;-87
2023/04/28 20:59:37;;;;;;;29.40;12.60;;;;;;;8.21;53.71;98935.96;273553;1267;22328;-88
2023/04/28 21:14:21;;;;;;;26.30;14.00;;;;;;;7.72;55.25;98924.52;273042;1269;22180;-88
2023/04/28 21:20:47;;;;;;;23.80;15.30;;;;;;;7.53;55.60;98921.61;273728;1269;22243;-87
2023/04/28 21:43:32;;;;;;;24.10;14.10;;;;;;;7.10;57.78;98931.67;272264;1277;22361;-87
2023/04/28 21:49:34;;;;;;;24.70;13.80;;;;;;;7.03;59.92;98930.66;271713;1265;22319;-87
2023/04/28 21:56:04;;;;;;;23.30;14.90;;;;;;;7.00;61.02;98931.42;272304;1277;22250;-87
2023/04/28 22:03:05;;;;;;;26.50;14.10;;;;;;;6.86;61.23;98925.02;272737;1265;22198;-87
2023/04/28 22:09:58;;;;;;;30.20;15.30;;;;;;;6.62;60.42;98922.95;273535;1267;22315;-86
2023/04/28 22:16:49;;;;;;;28.40;15.10;;;;;;;6.41;61.24;98921.16;271339;1270;25415;-86
2023/04/28 22:30:32;;;;;;;27.10;15.00;;;;;;;6.12;63.06;98920.77;271723;1269;22203;-87
2023/04/28 23:00:04;;;;;;;33.20;18.40;;;;;;;5.53;64.76;98905.92;273213;1269;22292;-87
2023/04/28 23:06:05;;;;;;;36.10;20.00;;;;;;;5.41;65.46;98909.61;271494;1269;23535;-87
2023/04/28 23:27:33;;;;;;;36.80;20.80;;;;;;;5.05;67.51;98893.40;272920;1269;22439;-86
2023/04/28 23:41:19;;;;;;;39.10;22.20;;;;;;;4.73;68.22;98883.09;273439;1269;22339;-86
2023/04/28 23:47:46;;;;;;;32.00;18.50;;;;;;;4.65;68.56;98878.73;271772;1274;22553;-86
2023/04/28 23:54:05;;;;;;;33.60;18.80;;;;;;;4.63;69.51;98876.41;273362;1269;23353;-86
